Terminal Aerodrome Forecast
Issued by NWS

Home | Current Version | Previous Version | Text Only | Print | Product List | Glossary Off
Versions: 1 2 3 4 5 6 7 8 9 10 11 12 13 14 15 16 17 18

000
FTUS42 KMHX 281139
TAFOAJ
TAF
KOAJ 281139Z 2812/2912 19007KT P6SM SCT020 BKN050
      TEMPO 2812/2814 BKN015
     FM281600 21010G18KT P6SM BKN045
     FM282300 19009KT P6SM FEW250
      AMD LTD TO CLD VIS AND WIND=

USA.gov is the U.S. government's official web portal to all federal, state and local government web resources and services.